KFOK/FOK METAR and TAF weather

Enter ICAO airport designator
Station Type Date Time Source
KFOK METAR 2021/03/02 15:53 UTC NOAA

KFOK 021553Z 30022G32KT 10SM CLR M03/M18 A3010 RMK AO2 PK WND 31034/1507 SLP192 T10331178


Station Type Date Time Source
KFOK Decoded METAR 2021/03/02 15:53 UTC NOAA

THE GABRESKI AIRPORT, NY, United States (KFOK) 40-51N 072-37W 33M
Mar 02, 2021 - 10:53 AM EST / 2021.03.02 1553 UTC
Wind: from the WNW (300 degrees) at 25 MPH (22 KT) gusting to 37 MPH (32 KT):0
Visibility: 10 mile(s):0
Sky conditions: clear
Temperature: 26.1 F (-3.3 C)
Windchill: 10 F (-12 C):1
Dew Point: -0.0 F (-17.8 C)
Relative Humidity: 31%
Pressure (altimeter): 30.1 in. Hg (1019 hPa)
ob: KFOK 021553Z 30022G32KT 10SM CLR M03/M18 A3010 RMK AO2 PK WND 31034/1507 SLP192 T10331178
cycle: 16

Station Type Date Time Source
KFOK TAF UTC NOAA

Error!

Example: see airport list